Time;durP1;ratioP1;P1;durP2;ratioP2;P2;SDS_P1;SDS_P2;PMS_P1;PMS_P2;Temp;Humidity;BMP_temperature;BMP_pressure;BME280_temperature;BME280_humidity;BME280_pressure;Samples;Min_cycle;Max_cycle;Signal;HPM_P1;HPM_P2
2021/05/19 00:00:50;;;;;;;2.02;1.52;;;;;;;18.07;64.87;99791.05;456887;112;929013;-72
2021/05/19 00:01:53;;;;;;;3.11;2.14;;;;;;;18.07;64.89;99789.13;457038;113;926465;-73
2021/05/19 00:02:57;;;;;;;2.24;1.64;;;;;;;18.10;64.91;99787.72;457022;113;924461;-73
2021/05/19 00:04:00;;;;;;;2.37;1.63;;;;;;;18.09;64.84;99784.12;457246;114;924135;-71
2021/05/19 00:05:05;;;;;;;1.86;1.49;;;;;;;18.11;64.78;99789.38;457930;113;924099;-73
2021/05/19 00:06:09;;;;;;;2.24;1.48;;;;;;;18.11;64.74;99786.61;456597;113;924029;-72
2021/05/19 00:07:13;;;;;;;1.67;1.41;;;;;;;18.12;64.71;99796.55;457453;114;925351;-73
2021/05/19 00:08:17;;;;;;;2.27;1.73;;;;;;;18.13;64.67;99790.75;458442;114;931760;-72
2021/05/19 00:09:21;;;;;;;2.44;1.48;;;;;;;18.13;64.66;99784.41;458531;113;922983;-71
2021/05/19 00:10:26;;;;;;;1.78;1.58;;;;;;;18.14;64.60;99781.34;457976;113;924478;-71
2021/05/19 00:11:30;;;;;;;3.25;1.62;;;;;;;18.15;64.54;99782.17;458094;112;924147;-74
2021/05/19 00:12:35;;;;;;;3.27;1.59;;;;;;;18.15;64.51;99779.41;459211;114;924562;-72
2021/05/19 00:13:39;;;;;;;3.34;1.42;;;;;;;18.13;64.55;99787.16;450538;114;924183;-71
2021/05/19 00:14:44;;;;;;;2.27;1.58;;;;;;;18.09;64.57;99781.38;450096;114;924096;-74
2021/05/19 00:15:48;;;;;;;2.61;1.61;;;;;;;18.05;64.56;99784.98;457864;113;925588;-72
2021/05/19 00:16:54;;;;;;;2.06;1.50;;;;;;;18.03;64.63;99776.19;458479;114;925040;-74
2021/05/19 00:18:04;;;;;;;2.34;1.52;;;;;;;18.00;64.76;99779.49;456107;113;922447;-74
2021/05/19 00:19:08;;;;;;;2.36;1.33;;;;;;;17.99;64.78;99780.59;456852;113;923642;-73
2021/05/19 00:20:15;;;;;;;2.19;1.76;;;;;;;17.96;64.79;99781.17;456592;113;924089;-74
2021/05/19 00:21:20;;;;;;;3.03;1.74;;;;;;;17.95;64.82;99787.80;455547;114;922410;-73
2021/05/19 00:22:24;;;;;;;2.29;1.30;;;;;;;17.93;64.98;99786.14;456151;114;927809;-72
2021/05/19 00:23:27;;;;;;;2.55;1.91;;;;;;;17.91;65.05;99782.03;457270;113;924632;-74
2021/05/19 00:24:31;;;;;;;2.98;1.50;;;;;;;17.87;65.12;99778.16;456268;113;933231;-73
2021/05/19 00:25:34;;;;;;;1.76;1.49;;;;;;;17.84;65.24;99779.56;457026;114;931973;-72
2021/05/19 00:26:39;;;;;;;2.04;1.50;;;;;;;17.82;65.24;99778.19;457747;113;930248;-72
2021/05/19 00:27:43;;;;;;;1.60;1.50;;;;;;;17.80;65.36;99774.91;457987;113;930461;-72
2021/05/19 00:28:51;;;;;;;2.95;1.58;;;;;;;17.79;65.44;99776.83;452736;114;930184;-74
2021/05/19 00:29:53;;;;;;;1.96;1.60;;;;;;;17.78;65.47;99768.83;453926;114;923708;-72
2021/05/19 00:31:00;;;;;;;3.41;1.75;;;;;;;17.78;65.49;99764.14;458238;114;923046;-73
2021/05/19 00:32:03;;;;;;;2.58;1.44;;;;;;;17.79;65.46;99764.98;458861;114;923051;-71
2021/05/19 00:33:06;;;;;;;1.79;1.52;;;;;;;17.79;65.50;99764.98;458487;114;922530;-72
2021/05/19 00:34:12;;;;;;;2.79;1.73;;;;;;;17.78;65.40;99755.88;459657;114;922914;-73
2021/05/19 00:35:15;;;;;;;3.51;1.92;;;;;;;17.77;65.40;99754.22;458770;114;930512;-74
2021/05/19 00:36:20;;;;;;;4.36;1.43;;;;;;;17.74;65.49;99752.04;459266;114;922800;-73
2021/05/19 00:38:08;;;;;;;2.78;1.32;;;;;;;17.72;65.58;99758.93;458315;112;922408;-74
2021/05/19 00:39:13;;;;;;;4.19;2.30;;;;;;;17.68;65.67;99758.68;456247;113;930331;-74
2021/05/19 00:40:17;;;;;;;4.22;2.28;;;;;;;17.63;65.82;99763.38;456127;113;923109;-71
2021/05/19 00:41:20;;;;;;;3.97;2.67;;;;;;;17.60;65.92;99756.48;455490;113;923823;-72
2021/05/19 00:42:24;;;;;;;5.04;2.77;;;;;;;17.60;65.96;99763.92;456138;114;924564;-72
2021/05/19 00:43:28;;;;;;;3.45;2.94;;;;;;;17.59;65.87;99760.31;457713;112;924462;-71
2021/05/19 00:44:32;;;;;;;4.02;3.32;;;;;;;17.61;65.80;99762.83;457466;114;924012;-73
2021/05/19 00:45:36;;;;;;;3.76;3.43;;;;;;;17.59;65.87;99754.80;456473;113;924781;-73
2021/05/19 00:46:45;;;;;;;3.47;3.13;;;;;;;17.58;65.94;99758.69;456360;113;924087;-72
2021/05/19 00:47:50;;;;;;;4.85;3.53;;;;;;;17.58;65.86;99760.61;448341;116;924123;-73
2021/05/19 00:48:54;;;;;;;4.22;3.49;;;;;;;17.57;65.81;99754.27;449244;114;926342;-74
2021/05/19 00:49:58;;;;;;;4.21;3.58;;;;;;;17.56;65.87;99749.86;457899;112;926300;-73
2021/05/19 00:51:03;;;;;;;4.11;3.72;;;;;;;17.57;65.87;99759.78;458706;113;924073;-72
2021/05/19 00:52:07;;;;;;;4.32;3.89;;;;;;;17.58;65.81;99760.61;458542;114;922517;-72
2021/05/19 00:53:11;;;;;;;8.83;3.89;;;;;;;17.59;65.78;99760.31;457388;113;924180;-72
2021/05/19 00:54:14;;;;;;;4.28;3.77;;;;;;;17.59;65.78;99760.31;457093;113;924114;-72
2021/05/19 00:55:19;;;;;;;4.82;4.34;;;;;;;17.59;65.73;99757.55;457468;113;930507;-72
2021/05/19 00:56:24;;;;;;;4.73;3.86;;;;;;;17.60;65.78;99750.97;458370;112;934158;-74
2021/05/19 00:57:29;;;;;;;4.48;4.08;;;;;;;17.60;65.80;99753.73;458322;113;922858;-73
2021/05/19 00:58:34;;;;;;;4.75;4.02;;;;;;;17.61;65.72;99751.80;458173;113;924786;-71
2021/05/19 00:59:38;;;;;;;5.49;3.74;;;;;;;17.60;65.71;99750.97;458249;113;922996;-73
2021/05/19 01:00:44;;;;;;;4.68;4.25;;;;;;;17.59;65.84;99754.80;458741;112;930543;-70
2021/05/19 01:01:58;;;;;;;4.62;4.21;;;;;;;17.59;65.90;99751.24;459815;112;922910;-73
2021/05/19 01:03:02;;;;;;;4.70;4.10;;;;;;;17.60;65.89;99750.14;457939;113;923054;-73
2021/05/19 01:04:07;;;;;;;5.75;5.02;;;;;;;17.62;65.88;99742.43;456490;113;930529;-72
2021/05/19 01:05:27;;;;;;;5.37;4.89;;;;;;;17.65;65.87;99753.70;451141;112;922449;-72
2021/05/19 01:10:31;;;;;;;6.33;5.73;;;;;;;17.74;65.81;99737.42;456711;114;922477;-71
2021/05/19 01:11:34;;;;;;;9.40;5.54;;;;;;;17.75;65.75;99737.13;457280;113;923010;-73
2021/05/19 01:12:38;;;;;;;6.21;5.61;;;;;;;17.76;65.75;99727.75;457333;112;922491;-71
2021/05/19 01:13:44;;;;;;;6.88;5.65;;;;;;;17.78;65.78;99732.98;457419;114;922959;-71
2021/05/19 01:14:50;;;;;;;7.41;6.39;;;;;;;17.78;65.75;99735.74;457785;112;922610;-71
2021/05/19 01:15:54;;;;;;;6.56;6.06;;;;;;;17.78;65.72;99741.26;457656;113;923166;-73
2021/05/19 01:16:58;;;;;;;8.74;5.42;;;;;;;17.79;65.82;99743.74;458509;112;922728;-73
2021/05/19 01:18:05;;;;;;;6.07;5.32;;;;;;;17.79;65.80;99743.74;458891;113;922423;-71
2021/05/19 01:19:11;;;;;;;5.89;5.29;;;;;;;17.81;65.76;99743.44;458201;112;922820;-72
2021/05/19 01:20:17;;;;;;;6.67;5.13;;;;;;;17.81;65.74;99740.68;457882;113;922726;-71
2021/05/19 01:21:23;;;;;;;5.74;5.25;;;;;;;17.83;65.76;99747.58;457642;112;922864;-71
2021/05/19 01:22:29;;;;;;;6.56;5.61;;;;;;;17.83;65.76;99752.27;439830;118;922589;-72
2021/05/19 01:23:34;;;;;;;6.02;5.22;;;;;;;17.82;65.78;99751.44;444570;117;922543;-71
2021/05/19 01:24:40;;;;;;;6.08;5.56;;;;;;;17.82;65.76;99747.84;445752;118;922643;-72
2021/05/19 01:25:44;;;;;;;6.09;5.39;;;;;;;17.82;65.73;99745.92;444928;117;922536;-72
2021/05/19 01:26:48;;;;;;;5.54;4.94;;;;;;;17.83;65.67;99755.02;448472;117;923040;-72
2021/05/19 01:27:58;;;;;;;5.77;4.99;;;;;;;17.83;65.71;99755.02;441200;117;922927;-73
2021/05/19 01:29:02;;;;;;;5.88;4.94;;;;;;;17.83;65.66;99755.02;440522;119;922815;-73
2021/05/19 01:30:08;;;;;;;5.79;5.25;;;;;;;17.84;65.70;99756.68;439906;118;924089;-71
2021/05/19 01:31:13;;;;;;;6.63;5.12;;;;;;;17.83;65.66;99755.84;438067;117;924807;-72
2021/05/19 01:32:17;;;;;;;7.46;6.21;;;;;;;17.82;65.77;99758.88;435663;118;922727;-71
2021/05/19 01:33:21;;;;;;;5.78;5.10;;;;;;;17.81;65.88;99755.30;448806;115;922587;-72
2021/05/19 01:34:25;;;;;;;5.92;5.34;;;;;;;17.82;65.82;99754.20;447929;117;930505;-72
2021/05/19 01:35:29;;;;;;;6.22;5.70;;;;;;;17.82;65.82;99754.20;443115;117;930495;-71
2021/05/19 01:36:33;;;;;;;5.92;5.39;;;;;;;17.83;65.76;99752.27;443116;117;924652;-71
2021/05/19 01:37:38;;;;;;;6.29;5.29;;;;;;;17.83;65.77;99753.09;448369;117;922863;-72
2021/05/19 01:38:44;;;;;;;6.55;5.06;;;;;;;17.82;65.83;99750.61;447460;116;931239;-71
2021/05/19 01:39:48;;;;;;;6.42;5.43;;;;;;;17.80;65.96;99753.67;448623;115;922516;-73
2021/05/19 01:40:52;;;;;;;6.77;5.26;;;;;;;17.78;66.03;99750.36;449109;115;923017;-72
2021/05/19 01:41:56;;;;;;;5.11;4.68;;;;;;;17.77;66.12;99751.46;448462;117;924477;-72
2021/05/19 01:42:59;;;;;;;5.75;5.16;;;;;;;17.75;66.17;99748.15;442689;117;923100;-72
2021/05/19 01:44:16;;;;;;;5.93;5.43;;;;;;;17.73;66.29;99746.80;426039;122;924302;-71
2021/05/19 01:45:27;;;;;;;5.51;4.90;;;;;;;17.80;66.48;99753.67;479022;108;947208;-72
2021/05/19 01:46:31;;;;;;;6.84;5.06;;;;;;;17.65;66.55;99753.70;474116;110;924225;-70
2021/05/19 01:47:47;;;;;;;5.81;5.27;;;;;;;17.62;66.69;99745.19;473659;110;924045;-72
2021/05/19 01:48:58;;;;;;;5.72;5.21;;;;;;;17.60;66.84;99744.63;471232;110;924095;-72
2021/05/19 01:50:02;;;;;;;7.97;5.63;;;;;;;17.58;67.02;99752.34;469121;110;926190;-73
2021/05/19 01:51:07;;;;;;;6.46;5.86;;;;;;;17.54;67.07;99746.55;468990;110;932415;-71
2021/05/19 01:52:12;;;;;;;6.58;5.65;;;;;;;17.51;67.15;99747.95;471187;110;923964;-69
2021/05/19 01:53:17;;;;;;;7.39;6.43;;;;;;;17.49;67.26;99757.59;472221;110;930482;-71
2021/05/19 01:54:22;;;;;;;6.85;6.17;;;;;;;17.46;67.36;99753.48;470835;110;924130;-69
2021/05/19 01:55:27;;;;;;;9.42;5.67;;;;;;;17.44;67.45;99754.85;470651;110;931990;-72
2021/05/19 01:56:40;;;;;;;7.05;6.11;;;;;;;17.43;67.52;99766.98;472191;110;923392;-72
2021/05/19 01:57:45;;;;;;;6.39;5.81;;;;;;;17.42;67.65;99749.61;470758;110;922578;-72
2021/05/19 01:58:50;;;;;;;6.75;6.09;;;;;;;17.42;67.72;99749.61;470363;110;922955;-72
2021/05/19 01:59:55;;;;;;;6.94;5.53;;;;;;;17.44;67.79;99743.83;473258;110;923247;-69
2021/05/19 02:00:59;;;;;;;6.34;5.63;;;;;;;17.47;67.86;99746.05;460709;112;922958;-72
2021/05/19 02:02:06;;;;;;;6.71;5.79;;;;;;;17.51;67.86;99745.20;461479;111;922486;-72
2021/05/19 02:03:10;;;;;;;6.98;6.10;;;;;;;17.56;67.83;99743.52;471105;110;922896;-73
2021/05/19 02:04:21;;;;;;;6.05;5.55;;;;;;;17.59;67.69;99740.22;470909;110;922567;-71
2021/05/19 02:05:28;;;;;;;6.68;5.99;;;;;;;17.62;67.64;99739.67;471295;111;922535;-72
2021/05/19 02:06:48;;;;;;;7.49;6.06;;;;;;;17.64;67.57;99746.54;471904;109;922794;-71
2021/05/19 02:07:54;;;;;;;6.83;6.20;;;;;;;17.66;67.59;99743.51;472246;109;922607;-73
2021/05/19 02:08:59;;;;;;;6.73;6.10;;;;;;;17.66;67.57;99747.09;472935;109;922904;-72
2021/05/19 02:10:06;;;;;;;9.94;5.86;;;;;;;17.68;67.70;99746.82;473060;109;922587;-72
2021/05/19 02:11:09;;;;;;;7.28;6.53;;;;;;;17.68;67.91;99741.30;473077;110;923285;-72
2021/05/19 02:12:15;;;;;;;11.78;7.19;;;;;;;17.68;68.37;99738.55;468149;110;922441;-72
2021/05/19 02:13:19;;;;;;;9.82;7.47;;;;;;;17.65;69.00;99737.16;469419;110;922482;-72
2021/05/19 02:14:23;;;;;;;8.83;7.36;;;;;;;17.61;69.47;99736.09;462797;114;922453;-73
2021/05/19 02:15:27;;;;;;;7.89;7.16;;;;;;;17.56;69.89;99738.84;455606;114;930550;-73
2021/05/19 02:16:32;;;;;;;8.51;7.49;;;;;;;17.51;70.56;99730.59;460644;110;923291;-71
2021/05/19 02:17:35;;;;;;;7.77;6.97;;;;;;;17.47;70.94;99729.50;468489;109;922515;-72
2021/05/19 02:18:42;;;;;;;7.62;6.76;;;;;;;17.44;71.07;99732.80;469226;109;922347;-72
2021/05/19 02:19:46;;;;;;;7.59;6.85;;;;;;;17.43;71.41;99733.91;470413;109;924048;-73
2021/05/19 02:20:49;;;;;;;8.68;7.17;;;;;;;17.41;71.50;99736.13;470167;110;923999;-72
2021/05/19 02:21:53;;;;;;;7.34;6.64;;;;;;;17.37;71.78;99735.84;471639;110;933319;-72
2021/05/19 02:22:56;;;;;;;8.13;7.34;;;;;;;17.36;71.71;99742.49;469935;110;930526;-72
2021/05/19 02:24:00;;;;;;;7.70;6.96;;;;;;;17.37;71.76;99743.29;471034;109;925938;-71
2021/05/19 02:25:05;;;;;;;7.87;7.11;;;;;;;17.37;71.61;99744.12;470984;109;932437;-71
2021/05/19 02:26:10;;;;;;;7.42;6.79;;;;;;;17.39;71.66;99743.84;471208;110;923208;-72
2021/05/19 02:27:14;;;;;;;7.45;6.66;;;;;;;17.40;71.47;99738.06;470573;111;924057;-71
2021/05/19 02:28:18;;;;;;;8.28;7.58;;;;;;;17.41;71.47;99747.98;471707;110;924052;-72
2021/05/19 02:29:23;;;;;;;8.19;7.43;;;;;;;17.43;71.35;99739.41;472449;110;923001;-72
2021/05/19 02:30:27;;;;;;;8.00;6.82;;;;;;;17.45;71.26;99731.70;472971;109;927310;-72
2021/05/19 02:31:31;;;;;;;7.08;6.55;;;;;;;17.47;71.18;99735.84;463787;111;924137;-71
2021/05/19 02:32:36;;;;;;;7.81;7.12;;;;;;;17.48;71.06;99723.69;463347;111;924141;-71
2021/05/19 02:33:40;;;;;;;8.02;7.28;;;;;;;17.50;70.96;99726.17;470056;110;924057;-72
2021/05/19 02:34:44;;;;;;;7.24;6.55;;;;;;;17.52;70.89;99723.97;470226;110;924437;-71
2021/05/19 02:35:48;;;;;;;6.65;6.11;;;;;;;17.53;70.79;99724.80;469285;110;922799;-69
2021/05/19 02:36:55;;;;;;;8.02;7.32;;;;;;;17.53;70.72;99724.80;468411;109;924056;-71
2021/05/19 02:38:00;;;;;;;8.01;7.16;;;;;;;17.54;70.70;99724.50;471426;109;925312;-72
2021/05/19 02:39:07;;;;;;;7.16;6.57;;;;;;;17.54;70.58;99721.74;468648;110;924061;-72
2021/05/19 02:40:14;;;;;;;6.73;6.13;;;;;;;17.55;70.57;99719.81;471041;110;930442;-71
2021/05/19 02:41:18;;;;;;;7.54;6.85;;;;;;;17.53;70.48;99709.09;471142;110;924047;-71
2021/05/19 02:42:21;;;;;;;7.34;6.24;;;;;;;17.53;70.43;99712.64;470947;109;924832;-70
2021/05/19 02:43:26;;;;;;;6.32;5.87;;;;;;;17.53;70.14;99719.29;470429;109;930594;-72
2021/05/19 02:44:30;;;;;;;6.52;5.98;;;;;;;17.53;70.14;99719.29;469879;110;924028;-74
2021/05/19 02:45:34;;;;;;;6.54;5.96;;;;;;;17.53;70.49;99711.84;471191;110;922994;-71
2021/05/19 02:46:39;;;;;;;7.34;6.63;;;;;;;17.55;70.51;99714.30;471658;110;923045;-70
2021/05/19 02:47:43;;;;;;;7.76;6.85;;;;;;;17.53;70.60;99712.64;471914;110;925644;-72
2021/05/19 02:48:47;;;;;;;8.65;7.94;;;;;;;17.54;70.62;99713.47;472184;110;923963;-70
2021/05/19 02:49:50;;;;;;;9.04;8.22;;;;;;;17.53;70.65;99706.33;472379;110;923106;-70
2021/05/19 02:50:54;;;;;;;9.24;8.36;;;;;;;17.52;70.68;99707.44;461062;112;925687;-71
2021/05/19 02:51:58;;;;;;;9.43;8.36;;;;;;;17.53;70.71;99716.53;463010;111;922614;-73
2021/05/19 02:53:02;;;;;;;7.87;7.10;;;;;;;17.51;70.78;99714.88;473311;110;922481;-71
2021/05/19 02:54:06;;;;;;;8.57;7.51;;;;;;;17.51;70.92;99714.05;474051;109;922834;-71
2021/05/19 02:55:11;;;;;;;7.14;6.56;;;;;;;17.50;70.90;99720.66;471950;109;922419;-71
2021/05/19 02:56:16;;;;;;;6.87;6.30;;;;;;;17.50;70.83;99718.73;471259;109;923398;-73
2021/05/19 02:57:20;;;;;;;7.80;5.97;;;;;;;17.49;70.94;99728.10;469486;109;922283;-72
2021/05/19 02:58:23;;;;;;;6.99;6.08;;;;;;;17.49;70.84;99722.59;470738;109;922662;-69
2021/05/19 02:59:27;;;;;;;6.78;6.16;;;;;;;17.49;70.83;99728.10;470158;109;930562;-72
2021/05/19 03:00:31;;;;;;;9.18;6.64;;;;;;;17.48;70.83;99722.86;470663;110;930510;-74
2021/05/19 03:01:35;;;;;;;7.16;6.54;;;;;;;17.47;70.76;99722.06;468583;110;930727;-73
2021/05/19 03:02:38;;;;;;;8.50;6.33;;;;;;;17.46;70.80;99728.67;471571;109;923174;-71
2021/05/19 03:03:42;;;;;;;8.86;6.81;;;;;;;17.45;70.80;99729.78;471429;110;922679;-72
2021/05/19 03:04:46;;;;;;;7.06;6.42;;;;;;;17.45;70.91;99726.19;471738;110;922515;-70
2021/05/19 03:05:50;;;;;;;7.36;6.69;;;;;;;17.44;70.93;99735.56;470581;111;922909;-73
2021/05/19 03:06:54;;;;;;;7.47;6.78;;;;;;;17.43;71.01;99729.22;471367;110;922526;-73
2021/05/19 03:07:57;;;;;;;6.75;6.18;;;;;;;17.43;71.09;99731.98;471441;110;922888;-72
2021/05/19 03:09:03;;;;;;;6.70;6.12;;;;;;;17.42;71.08;99741.34;472510;109;922498;-73
2021/05/19 03:10:07;;;;;;;7.86;6.99;;;;;;;17.42;71.05;99733.08;463144;112;922759;-72
2021/05/19 03:11:12;;;;;;;7.55;6.97;;;;;;;17.40;71.06;99731.72;463319;111;922647;-73
2021/05/19 03:12:16;;;;;;;12.67;7.22;;;;;;;17.37;71.43;99735.02;473181;109;929001;-71
2021/05/19 03:13:21;;;;;;;7.24;6.54;;;;;;;17.36;71.60;99736.16;462300;111;922565;-72
2021/05/19 03:14:24;;;;;;;7.96;7.18;;;;;;;17.34;71.71;99735.59;451821;114;931997;-75
2021/05/19 03:15:28;;;;;;;11.56;7.53;;;;;;;17.30;71.88;99735.34;472848;110;931947;-70
2021/05/19 03:16:33;;;;;;;9.84;7.72;;;;;;;17.28;72.12;99747.73;471438;110;922702;-72
2021/05/19 03:17:37;;;;;;;7.87;7.16;;;;;;;17.23;72.39;99747.75;471363;109;923044;-70
2021/05/19 03:18:41;;;;;;;8.27;7.53;;;;;;;17.20;72.75;99745.56;468854;110;922405;-73
2021/05/19 03:19:44;;;;;;;8.15;7.44;;;;;;;17.17;72.95;99748.85;470902;110;930425;-72
2021/05/19 03:20:48;;;;;;;7.69;6.96;;;;;;;17.14;73.17;99746.67;470019;110;931991;-73
2021/05/19 03:21:52;;;;;;;8.98;7.51;;;;;;;17.12;73.32;99752.45;469274;110;924016;-73
2021/05/19 03:22:55;;;;;;;8.39;7.62;;;;;;;17.10;73.43;99755.47;466715;110;924100;-72
2021/05/19 03:23:59;;;;;;;8.24;6.97;;;;;;;17.10;73.56;99751.89;462427;112;932022;-72
2021/05/19 03:25:05;;;;;;;9.09;8.30;;;;;;;17.08;73.40;99749.44;462271;110;922583;-72
2021/05/19 03:26:10;;;;;;;8.35;7.42;;;;;;;17.08;73.47;99754.95;470864;109;924065;-71
2021/05/19 03:27:14;;;;;;;9.78;8.25;;;;;;;17.10;73.50;99757.39;469161;111;924062;-70
2021/05/19 03:28:18;;;;;;;10.40;7.73;;;;;;;17.11;73.53;99756.30;469700;110;924040;-73
2021/05/19 03:29:21;;;;;;;8.61;7.79;;;;;;;17.12;73.67;99757.13;470753;109;933678;-73
2021/05/19 03:30:26;;;;;;;10.71;9.82;;;;;;;17.10;73.58;99758.23;470246;110;924040;-69
2021/05/19 03:31:30;;;;;;;8.99;8.09;;;;;;;17.09;73.58;99759.33;471512;109;926541;-72
2021/05/19 03:32:33;;;;;;;8.09;7.54;;;;;;;17.08;73.67;99754.11;471203;109;927108;-73
2021/05/19 03:33:37;;;;;;;8.87;8.15;;;;;;;17.07;73.57;99757.97;470695;111;931995;-71
2021/05/19 03:34:41;;;;;;;8.22;7.54;;;;;;;17.08;73.48;99756.87;471835;110;924446;-72
2021/05/19 03:35:45;;;;;;;9.11;8.41;;;;;;;17.09;73.26;99745.55;472403;111;924132;-71
2021/05/19 03:36:48;;;;;;;9.16;8.34;;;;;;;17.09;73.19;99751.06;473438;110;923482;-72
2021/05/19 03:37:52;;;;;;;9.38;8.41;;;;;;;17.09;73.15;99751.06;473255;110;923751;-73
2021/05/19 03:38:56;;;;;;;9.18;8.08;;;;;;;17.09;73.28;99755.77;470574;110;932013;-73
2021/05/19 03:40:00;;;;;;;9.32;8.24;;;;;;;17.08;73.54;99754.95;468272;110;924074;-72
2021/05/19 03:41:06;;;;;;;8.42;7.73;;;;;;;17.06;73.73;99754.38;467246;110;930420;-73
2021/05/19 03:42:09;;;;;;;9.21;8.46;;;;;;;17.05;73.96;99754.66;469449;110;922510;-73
2021/05/19 03:43:14;;;;;;;9.44;8.55;;;;;;;17.02;74.08;99761.56;469284;109;922565;-73
2021/05/19 03:44:17;;;;;;;9.79;8.84;;;;;;;16.99;74.12;99751.08;457555;112;930444;-73
2021/05/19 03:45:24;;;;;;;9.46;8.66;;;;;;;16.97;74.29;99750.55;460160;111;922543;-74
2021/05/19 03:46:28;;;;;;;9.30;8.52;;;;;;;16.94;74.73;99758.52;467164;110;930560;-73
2021/05/19 03:47:31;;;;;;;9.97;9.08;;;;;;;16.92;75.05;99758.81;468310;110;922818;-74
2021/05/19 03:48:35;;;;;;;9.15;8.10;;;;;;;16.91;75.14;99751.66;468022;111;922894;-73
2021/05/19 03:49:39;;;;;;;8.74;7.99;;;;;;;16.91;75.27;99754.41;467575;110;925311;-73
2021/05/19 03:50:45;;;;;;;9.63;8.82;;;;;;;;;;470219;110;922871;-73
2021/05/19 03:51:48;;;;;;;9.53;8.73;;;;;;;16.89;75.44;99759.35;469227;111;922990;-75
2021/05/19 03:52:52;;;;;;;9.28;8.04;;;;;;;16.86;75.60;99754.41;467919;110;922519;-74
2021/05/19 03:53:57;;;;;;;9.63;8.75;;;;;;;16.86;75.64;99750.83;469259;110;922687;-73
2021/05/19 03:55:04;;;;;;;9.56;8.63;;;;;;;16.86;75.67;99757.17;469872;110;922413;-73
2021/05/19 03:56:19;;;;;;;9.89;9.02;;;;;;;16.85;75.72;99754.68;453414;114;923410;-74
2021/05/19 03:58:04;;;;;;;8.81;8.04;;;;;;;16.80;75.89;99752.77;457236;112;923385;-73
2021/05/19 03:59:19;;;;;;;9.99;9.05;;;;;;;16.79;76.11;99758.53;452583;115;924099;-72
2021/05/19 04:01:23;;;;;;;11.19;9.33;;;;;;;16.77;76.43;99766.23;461036;112;922927;-72
2021/05/19 04:02:27;;;;;;;9.76;8.84;;;;;;;16.72;76.64;99763.48;473030;108;922507;-71
2021/05/19 04:03:31;;;;;;;10.59;9.58;;;;;;;16.66;76.78;99763.48;465636;111;922504;-71
2021/05/19 04:04:36;;;;;;;9.54;8.77;;;;;;;16.63;76.79;99764.04;464158;113;931198;-74
2021/05/19 04:05:43;;;;;;;9.81;9.01;;;;;;;16.60;76.81;99761.82;456792;113;922435;-73
2021/05/19 04:06:48;;;;;;;9.36;8.48;;;;;;;16.57;76.90;99764.27;472699;109;924498;-72
2021/05/19 04:08:26;;;;;;;7.99;7.24;;;;;;;16.55;77.06;99755.45;485728;106;926035;-72
2021/05/19 04:09:30;;;;;;;8.12;7.32;;;;;;;16.55;77.19;99763.71;480903;107;922843;-75
2021/05/19 04:10:36;;;;;;;8.35;7.65;;;;;;;16.52;77.19;99756.84;479397;107;922894;-72
2021/05/19 04:11:52;;;;;;;7.49;6.81;;;;;;;16.51;77.18;99760.69;454170;114;931114;-69
2021/05/19 04:12:56;;;;;;;7.22;6.62;;;;;;;16.50;77.29;99756.28;444612;117;923040;-72
2021/05/19 04:14:01;;;;;;;6.69;6.06;;;;;;;16.51;77.26;99757.11;451601;114;921984;-69
2021/05/19 04:15:06;;;;;;;5.95;5.49;;;;;;;16.51;77.18;99757.11;464389;113;922939;-70
2021/05/19 04:16:11;;;;;;;6.48;5.55;;;;;;;16.52;77.19;99756.84;463965;111;924017;-68
2021/05/19 04:17:15;;;;;;;6.42;5.93;;;;;;;16.54;77.24;99751.88;463828;111;922634;-69
2021/05/19 04:18:19;;;;;;;6.25;5.61;;;;;;;16.57;76.94;99761.52;464008;112;922997;-69
2021/05/19 04:19:23;;;;;;;7.44;6.56;;;;;;;16.58;76.79;99760.43;464097;112;930467;-69
2021/05/19 04:20:26;;;;;;;6.53;5.81;;;;;;;16.59;76.75;99762.12;464430;112;922997;-67
2021/05/19 04:21:30;;;;;;;4.53;4.13;;;;;;;16.60;76.65;99772.00;463778;112;923222;-69
2021/05/19 04:22:34;;;;;;;4.89;4.35;;;;;;;16.59;76.49;99773.92;455175;115;925417;-71
2021/05/19 04:23:37;;;;;;;5.09;4.45;;;;;;;16.60;76.54;99763.74;446532;118;930525;-69
2021/05/19 04:24:40;;;;;;;5.01;4.59;;;;;;;16.61;76.49;99771.73;445005;117;923128;-71
2021/05/19 04:25:51;;;;;;;5.22;4.73;;;;;;;16.73;76.26;99767.89;469813;110;948418;-71
2021/05/19 04:26:55;;;;;;;5.24;4.79;;;;;;;16.62;76.19;99772.56;464540;112;922335;-71
2021/05/19 04:27:58;;;;;;;4.84;4.41;;;;;;;16.63;76.03;99771.47;464757;112;922466;-70
2021/05/19 04:29:02;;;;;;;4.74;4.31;;;;;;;16.62;76.06;99770.64;463107;112;922964;-72
2021/05/19 04:30:09;;;;;;;4.54;3.89;;;;;;;16.63;76.02;99772.30;463787;112;923031;-69
2021/05/19 04:31:13;;;;;;;6.17;3.93;;;;;;;16.64;75.92;99778.63;464282;112;922579;-70
2021/05/19 04:32:17;;;;;;;3.94;3.55;;;;;;;16.65;75.77;99763.74;464237;112;922673;-73
2021/05/19 04:33:22;;;;;;;3.89;3.51;;;;;;;16.66;75.71;99768.16;458458;114;930656;-72
2021/05/19 04:34:25;;;;;;;4.45;3.25;;;;;;;16.68;75.64;99776.97;464257;112;922516;-72
2021/05/19 04:35:30;;;;;;;4.87;3.74;;;;;;;16.68;75.51;99771.47;464750;112;923015;-72
2021/05/19 04:36:37;;;;;;;4.67;3.36;;;;;;;16.70;75.44;99771.20;464976;112;922571;-72
2021/05/19 04:37:40;;;;;;;3.52;3.12;;;;;;;16.71;75.30;99768.16;465398;112;923712;-71
2021/05/19 04:38:49;;;;;;;4.01;2.72;;;;;;;16.73;75.15;99767.89;465127;112;930469;-70
2021/05/19 04:39:54;;;;;;;5.41;3.55;;;;;;;16.75;75.11;99772.03;465771;112;922470;-68
2021/05/19 04:40:57;;;;;;;3.64;2.62;;;;;;;16.75;74.93;99771.20;466176;112;922620;-68
2021/05/19 04:42:03;;;;;;;3.65;2.68;;;;;;;16.75;74.70;99771.20;466088;111;931969;-69
2021/05/19 04:43:09;;;;;;;6.08;3.23;;;;;;;16.74;74.42;99764.04;466112;112;922928;-68
2021/05/19 04:44:12;;;;;;;2.75;2.43;;;;;;;16.73;74.41;99771.47;459287;114;922607;-69
2021/05/19 04:45:16;;;;;;;8.11;2.77;;;;;;;16.72;74.43;99775.31;464245;112;923061;-68
2021/05/19 04:46:20;;;;;;;4.53;3.73;;;;;;;16.73;74.31;99774.22;463331;112;924102;-68
2021/05/19 04:47:24;;;;;;;3.22;2.92;;;;;;;16.73;74.22;99771.47;463188;112;922547;-68
2021/05/19 04:48:27;;;;;;;3.53;3.16;;;;;;;16.73;74.06;99770.64;464343;112;922888;-69
2021/05/19 04:49:31;;;;;;;3.49;3.19;;;;;;;16.73;73.97;99773.39;464469;112;930318;-69
2021/05/19 04:50:36;;;;;;;3.88;3.56;;;;;;;16.73;74.06;99768.72;464254;112;922890;-68
2021/05/19 04:51:41;;;;;;;4.11;3.66;;;;;;;16.73;74.03;99773.39;463108;112;922466;-69
2021/05/19 04:52:45;;;;;;;4.22;3.36;;;;;;;16.71;74.04;99770.91;464023;112;922425;-70
2021/05/19 04:53:48;;;;;;;3.56;3.26;;;;;;;16.70;74.08;99769.28;464718;112;930488;-70
2021/05/19 04:54:52;;;;;;;3.48;3.21;;;;;;;16.69;74.10;99773.13;464700;111;930526;-69
2021/05/19 04:55:55;;;;;;;3.59;3.02;;;;;;;16.68;74.26;99765.97;464584;112;923004;-69
2021/05/19 04:56:59;;;;;;;3.49;3.19;;;;;;;16.66;74.23;99766.23;464937;112;930289;-69
2021/05/19 04:58:03;;;;;;;2.64;2.36;;;;;;;16.67;74.22;99770.64;459007;114;930498;-67
2021/05/19 04:59:07;;;;;;;3.34;2.87;;;;;;;16.68;74.00;99774.22;464908;112;930349;-69
2021/05/19 05:00:12;;;;;;;6.74;2.71;;;;;;;16.67;73.93;99776.15;465277;112;922972;-68
2021/05/19 05:01:15;;;;;;;2.83;2.57;;;;;;;16.67;73.88;99770.64;465537;112;930519;-70
2021/05/19 05:02:19;;;;;;;5.21;3.56;;;;;;;16.68;73.90;99774.22;466848;112;922486;-68
2021/05/19 05:03:23;;;;;;;4.61;3.59;;;;;;;16.69;73.78;99773.13;459566;114;930656;-68
2021/05/19 05:04:27;;;;;;;4.03;3.41;;;;;;;16.70;73.85;99784.97;457574;114;925754;-70
2021/05/19 05:05:31;;;;;;;3.86;3.54;;;;;;;16.71;73.96;99778.34;465845;112;933683;-69
2021/05/19 05:06:35;;;;;;;4.56;4.07;;;;;;;16.70;73.92;99777.54;466578;112;931945;-70
2021/05/19 05:07:39;;;;;;;4.67;3.72;;;;;;;16.70;73.94;99779.46;458565;114;927195;-69
2021/05/19 05:08:43;;;;;;;4.17;3.69;;;;;;;16.72;74.00;99779.99;463644;112;930584;-69
2021/05/19 05:09:47;;;;;;;4.50;3.71;;;;;;;16.72;73.97;99778.07;464052;112;922888;-68